createdAt,value
2022-09-06T00:02:42.807Z,101041.58
2022-09-06T00:07:46.384Z,101038.94
2022-09-06T00:12:50.188Z,101041.69
2022-09-06T00:17:54.592Z,101035.94
2022-09-06T00:23:04.536Z,101035.16
2022-09-06T00:28:09.411Z,101034.41
2022-09-06T00:33:14.103Z,101030.60
2022-09-06T00:38:20.435Z,101034.14
2022-09-06T00:43:30.313Z,101032.02
2022-09-06T00:48:34.014Z,101031.27
2022-09-06T00:53:37.687Z,101032.34
2022-09-06T00:58:41.714Z,101032.02
2022-09-06T01:03:46.642Z,101036.23
2022-09-06T01:09:06.947Z,101035.06
2022-09-06T01:14:34.948Z,101034.47
2022-09-06T01:20:16.015Z,101031.31
2022-09-06T01:26:06.320Z,101026.91
2022-09-06T01:31:25.242Z,101021.93
2022-09-06T01:36:45.769Z,101026.63
2022-09-06T01:41:59.315Z,101026.80
2022-09-06T01:47:21.463Z,101031.91
2022-09-06T01:52:44.050Z,101032.73
2022-09-06T01:58:10.175Z,101028.13
2022-09-06T02:03:41.376Z,101032.95
2022-09-06T02:08:48.224Z,101034.54
2022-09-06T02:13:58.255Z,101033.52
2022-09-06T02:19:23.715Z,101029.16
2022-09-06T02:24:31.092Z,101027.17
2022-09-06T02:29:36.630Z,101012.14
2022-09-06T02:34:41.679Z,101011.17
2022-09-06T02:39:45.304Z,101013.20
2022-09-06T02:44:49.597Z,101009.67
2022-09-06T02:49:53.630Z,101010.41
2022-09-06T02:54:57.093Z,101007.60
2022-09-06T03:00:00.428Z,101006.95
2022-09-06T03:05:04.105Z,100999.66
2022-09-06T03:10:07.747Z,100999.23
2022-09-06T03:15:12.830Z,100994.27
2022-09-06T03:20:16.254Z,100998.56
2022-09-06T03:25:19.683Z,101000.86
2022-09-06T03:30:23.364Z,100999.10
2022-09-06T03:35:30.532Z,100994.95
2022-09-06T03:40:36.788Z,101002.64
2022-09-06T03:45:43.439Z,100998.57
2022-09-06T03:50:53.060Z,100990.70
2022-09-06T03:56:01.972Z,100992.70
2022-09-06T04:01:12.059Z,100995.99
2022-09-06T04:06:16.729Z,100998.44
2022-09-06T04:11:32.629Z,100993.21
2022-09-06T04:16:58.194Z,100986.41
2022-09-06T04:22:13.830Z,100979.55
2022-09-06T04:27:18.763Z,100978.10
2022-09-06T04:32:22.119Z,100977.48
2022-09-06T04:37:25.616Z,100987.85
2022-09-06T04:42:29.077Z,100990.16
2022-09-06T04:47:35.871Z,100980.19
2022-09-06T04:52:39.185Z,100964.30
2022-09-06T04:57:46.544Z,100970.52
2022-09-06T05:02:52.001Z,100973.71
2022-09-06T05:07:56.153Z,100983.78
2022-09-06T05:12:59.910Z,100998.81
2022-09-06T05:18:12.867Z,101000.41
2022-09-06T05:23:33.877Z,101000.59
2022-09-06T05:28:40.140Z,101001.50
2022-09-06T05:33:44.885Z,101003.28
2022-09-06T05:38:48.441Z,101008.36
2022-09-06T05:43:54.802Z,101017.59
2022-09-06T05:49:04.973Z,101018.46
2022-09-06T05:54:11.580Z,101009.02
2022-09-06T05:59:15.429Z,101007.53
2022-09-06T06:04:18.994Z,101009.60
2022-09-06T06:09:22.362Z,101004.44
2022-09-06T06:14:25.668Z,101005.38
2022-09-06T06:19:29.425Z,101008.55
2022-09-06T06:24:33.642Z,101009.14
2022-09-06T06:29:38.600Z,101012.53
2022-09-06T06:34:42.085Z,101005.20
2022-09-06T06:39:45.568Z,101004.85
2022-09-06T06:44:49.005Z,101002.30
2022-09-06T06:49:52.447Z,100996.84
2022-09-06T06:54:58.847Z,100994.59
2022-09-06T07:00:07.202Z,101001.43
2022-09-06T07:10:36.654Z,100995.45
2022-09-06T07:15:41.091Z,100999.31
2022-09-06T07:26:15.801Z,101005.27
2022-09-06T07:36:45.854Z,101008.16
2022-09-06T07:41:51.021Z,101011.10
2022-09-06T07:46:54.603Z,101025.11
2022-09-06T07:52:00.279Z,101031.77
2022-09-06T07:57:03.711Z,101032.19
2022-09-06T08:02:10.457Z,101028.88
2022-09-06T08:07:40.460Z,101025.54
2022-09-06T08:12:59.700Z,101024.31
2022-09-06T08:18:11.816Z,101017.06
2022-09-06T08:23:20.177Z,101008.27
2022-09-06T08:28:28.998Z,101008.13
2022-09-06T08:33:34.198Z,100989.81
2022-09-06T08:38:42.462Z,100984.05
2022-09-06T08:49:33.440Z,100983.35
2022-09-06T08:55:05.206Z,100988.58
2022-09-06T09:00:20.510Z,100981.85
2022-09-06T09:05:33.074Z,100980.86
2022-09-06T09:10:43.776Z,100973.48
2022-09-06T09:15:47.254Z,100965.09
2022-09-06T09:20:52.191Z,100970.33
2022-09-06T09:25:59.991Z,100972.02
2022-09-06T09:31:03.609Z,100967.98
2022-09-06T09:36:19.985Z,100966.55
2022-09-06T09:41:49.600Z,100958.60
2022-09-06T09:46:53.813Z,100963.62
2022-09-06T09:52:12.105Z,100966.89
2022-09-06T09:57:19.094Z,100962.40
2022-09-06T10:02:32.233Z,100964.69
2022-09-06T10:07:43.903Z,100956.25
2022-09-06T10:12:47.509Z,100946.86
2022-09-06T10:17:52.017Z,100948.69
2022-09-06T10:23:05.922Z,100946.65
2022-09-06T10:28:15.390Z,100943.50
2022-09-06T10:34:00.362Z,100936.36
2022-09-06T10:39:35.907Z,100928.83
2022-09-06T10:44:54.240Z,100917.05
2022-09-06T10:49:59.597Z,100911.85
2022-09-06T10:55:22.724Z,100902.45
2022-09-06T11:01:04.584Z,100894.02
2022-09-06T11:06:22.502Z,100881.56
2022-09-06T11:11:41.977Z,100870.73
2022-09-06T11:17:00.176Z,100861.80
2022-09-06T11:22:42.436Z,100855.52
2022-09-06T11:27:53.931Z,100845.99
2022-09-06T11:33:16.797Z,100852.05
2022-09-06T11:38:25.836Z,100852.78
2022-09-06T11:44:07.709Z,100856.23
2022-09-06T11:49:40.378Z,100854.08
2022-09-06T11:55:25.292Z,100849.04
2022-09-06T12:01:39.983Z,100847.98
2022-09-06T12:07:21.765Z,100844.45
2022-09-06T12:12:52.156Z,100845.15
2022-09-06T12:18:22.898Z,100842.97
2022-09-06T12:24:45.875Z,100837.20
2022-09-06T12:30:42.436Z,100822.17
2022-09-06T12:36:02.306Z,100818.86
2022-09-06T12:46:52.465Z,100814.30
2022-09-06T12:52:34.182Z,100812.08
2022-09-06T12:58:31.839Z,100812.57
2022-09-06T13:03:54.022Z,100808.70
2022-09-06T13:09:40.962Z,100797.02
2022-09-06T13:22:33.887Z,100777.61
2022-09-06T13:28:38.558Z,100767.73
2022-09-06T13:34:11.110Z,100759.47
2022-09-06T13:39:34.216Z,100753.18
2022-09-06T13:44:40.343Z,100740.63
2022-09-06T13:49:58.734Z,100738.27
2022-09-06T13:55:23.061Z,100742.10
2022-09-06T14:00:35.642Z,100748.13
2022-09-06T14:05:48.081Z,100748.55
2022-09-06T14:10:55.188Z,100747.98
2022-09-06T14:15:58.758Z,100740.45
2022-09-06T14:21:02.408Z,100737.33
2022-09-06T14:26:14.884Z,100729.55
2022-09-06T14:31:36.110Z,100722.36
2022-09-06T14:36:56.453Z,100715.45
2022-09-06T14:42:05.069Z,100713.45
2022-09-06T14:47:17.262Z,100715.89
2022-09-06T14:52:36.344Z,100714.41
2022-09-06T14:58:00.376Z,100715.09
2022-09-06T15:03:31.575Z,100701.73
2022-09-06T15:09:09.970Z,100699.13
2022-09-06T15:14:41.687Z,100702.79
2022-09-06T15:20:05.732Z,100699.69
2022-09-06T15:25:35.817Z,100695.65
2022-09-06T15:30:50.793Z,100699.50
2022-09-06T15:36:21.007Z,100695.13
2022-09-06T15:41:27.839Z,100689.17
2022-09-06T15:46:45.900Z,100689.98
2022-09-06T15:51:51.813Z,100676.81
2022-09-06T15:57:07.243Z,100667.05
2022-09-06T16:02:30.712Z,100651.92
2022-09-06T16:07:43.537Z,100652.14
2022-09-06T16:12:58.155Z,100663.92
2022-09-06T16:18:06.451Z,100664.27
2022-09-06T16:23:13.119Z,100671.70
2022-09-06T16:28:21.876Z,100669.36
2022-09-06T16:33:25.607Z,100666.44
2022-09-06T16:38:33.570Z,100650.10
2022-09-06T16:43:38.877Z,100638.74
2022-09-06T16:49:07.247Z,100633.20
2022-09-06T16:54:15.004Z,100630.89
2022-09-06T16:59:23.551Z,100634.55
2022-09-06T17:04:29.705Z,100628.56
2022-09-06T17:09:45.521Z,100622.19
2022-09-06T17:14:54.706Z,100621.70
2022-09-06T17:19:59.403Z,100622.58
2022-09-06T17:25:04.544Z,100619.23
2022-09-06T17:30:08.772Z,100623.39
2022-09-06T17:35:17.319Z,100625.45
2022-09-06T17:40:21.985Z,100629.98
2022-09-06T17:45:28.330Z,100635.45
2022-09-06T17:50:35.795Z,100641.98
2022-09-06T17:55:41.422Z,100644.87
2022-09-06T18:00:48.363Z,100652.20
2022-09-06T18:05:52.112Z,100654.27
2022-09-06T18:11:24.661Z,100667.13
2022-09-06T18:16:34.740Z,100671.84
2022-09-06T18:21:44.841Z,100674.06
2022-09-06T18:26:54.965Z,100669.80
2022-09-06T18:32:04.599Z,100672.21
2022-09-06T18:37:13.219Z,100670.34
2022-09-06T18:42:20.421Z,100669.22
2022-09-06T18:47:58.553Z,100669.61
2022-09-06T18:53:20.416Z,100661.80
2022-09-06T18:58:57.026Z,100664.04
2022-09-06T19:04:10.675Z,100661.09
2022-09-06T19:09:57.029Z,100652.70
2022-09-06T19:15:32.798Z,100650.09
2022-09-06T19:20:53.015Z,100652.48
2022-09-06T19:26:19.947Z,100659.30
2022-09-06T19:32:03.907Z,100658.96
2022-09-06T19:37:45.316Z,100658.75
2022-09-06T19:43:23.953Z,100653.33
2022-09-06T19:48:53.699Z,100643.19
2022-09-06T19:54:19.911Z,100634.27
2022-09-06T20:05:24.358Z,100635.77
2022-09-06T20:10:35.093Z,100626.55
2022-09-06T20:15:42.116Z,100630.78
2022-09-06T20:20:45.690Z,100624.98
2022-09-06T20:26:13.081Z,100621.56
2022-09-06T20:31:18.934Z,100626.08
2022-09-06T20:36:22.528Z,100617.61
2022-09-06T20:41:26.965Z,100617.43
2022-09-06T20:46:32.712Z,100613.34
2022-09-06T20:51:38.800Z,100616.51
2022-09-06T20:56:43.572Z,100614.06
2022-09-06T21:01:47.579Z,100613.89
2022-09-06T21:06:51.771Z,100609.17
2022-09-06T21:11:57.741Z,100615.79
2022-09-06T21:17:01.229Z,100609.59
2022-09-06T21:22:04.618Z,100604.67
2022-09-06T21:27:08.158Z,100608.40
2022-09-06T21:32:11.560Z,100610.64
2022-09-06T21:37:14.930Z,100609.45
2022-09-06T21:42:18.902Z,100612.35
2022-09-06T21:47:22.279Z,100608.54
2022-09-06T21:52:26.715Z,100593.49
2022-09-06T21:57:30.042Z,100587.50
2022-09-06T22:02:34.496Z,100582.94
2022-09-06T22:07:38.040Z,100577.60
2022-09-06T22:12:45.905Z,100573.89
2022-09-06T22:17:49.864Z,100572.75
2022-09-06T22:22:53.139Z,100577.52
2022-09-06T22:27:56.622Z,100580.20
2022-09-06T22:33:00.191Z,100580.51
2022-09-06T22:38:03.739Z,100579.52
2022-09-06T22:43:12.900Z,100576.06
2022-09-06T22:48:24.988Z,100578.73
2022-09-06T22:53:29.575Z,100575.86
2022-09-06T22:58:38.070Z,100570.30
2022-09-06T23:03:42.759Z,100569.16
2022-09-06T23:08:47.247Z,100563.57
2022-09-06T23:13:55.747Z,100568.02
2022-09-06T23:19:05.982Z,100562.95
2022-09-06T23:24:11.548Z,100563.53
2022-09-06T23:29:15.162Z,100561.02
2022-09-06T23:34:18.688Z,100558.95
2022-09-06T23:39:22.515Z,100560.29
2022-09-06T23:44:25.992Z,100561.98
2022-09-06T23:49:29.899Z,100562.06
2022-09-06T23:54:43.424Z,100553.20
2022-09-06T23:59:49.803Z,100542.90
